sensor_id;sensor_type;location;lat;lon;timestamp;P1;durP1;ratioP1;P2;durP2;ratioP2
14100;SDS011;7127;49.372;8.166;2023-04-24T00:01:22;0.40;;;0.40;;
14100;SDS011;7127;49.372;8.166;2023-04-24T00:03:49;0.30;;;0.30;;
14100;SDS011;7127;49.372;8.166;2023-04-24T00:06:16;1.77;;;0.40;;
14100;SDS011;7127;49.372;8.166;2023-04-24T00:08:44;0.77;;;0.63;;
14100;SDS011;7127;49.372;8.166;2023-04-24T00:11:11;0.40;;;0.40;;
14100;SDS011;7127;49.372;8.166;2023-04-24T00:13:37;0.40;;;0.40;;
14100;SDS011;7127;49.372;8.166;2023-04-24T00:16:05;0.93;;;0.43;;
14100;SDS011;7127;49.372;8.166;2023-04-24T00:18:33;0.57;;;0.50;;
14100;SDS011;7127;49.372;8.166;2023-04-24T00:21:00;1.00;;;0.63;;
14100;SDS011;7127;49.372;8.166;2023-04-24T00:23:27;0.93;;;0.53;;
14100;SDS011;7127;49.372;8.166;2023-04-24T00:25:54;0.87;;;0.50;;
14100;SDS011;7127;49.372;8.166;2023-04-24T00:28:21;0.83;;;0.63;;
14100;SDS011;7127;49.372;8.166;2023-04-24T00:30:48;0.63;;;0.50;;
14100;SDS011;7127;49.372;8.166;2023-04-24T00:33:15;0.47;;;0.30;;
14100;SDS011;7127;49.372;8.166;2023-04-24T00:35:43;1.10;;;0.53;;
14100;SDS011;7127;49.372;8.166;2023-04-24T00:38:10;0.60;;;0.60;;
14100;SDS011;7127;49.372;8.166;2023-04-24T00:40:36;0.50;;;0.50;;
14100;SDS011;7127;49.372;8.166;2023-04-24T00:43:03;0.60;;;0.60;;
14100;SDS011;7127;49.372;8.166;2023-04-24T00:45:30;0.53;;;0.43;;
14100;SDS011;7127;49.372;8.166;2023-04-24T00:47:57;1.50;;;0.70;;
14100;SDS011;7127;49.372;8.166;2023-04-24T00:50:26;0.50;;;0.40;;
14100;SDS011;7127;49.372;8.166;2023-04-24T00:52:54;0.53;;;0.30;;
14100;SDS011;7127;49.372;8.166;2023-04-24T00:55:21;0.97;;;0.50;;
14100;SDS011;7127;49.372;8.166;2023-04-24T00:57:48;0.53;;;0.30;;
14100;SDS011;7127;49.372;8.166;2023-04-24T01:00:15;0.53;;;0.40;;
14100;SDS011;7127;49.372;8.166;2023-04-24T01:02:43;0.50;;;0.40;;
14100;SDS011;7127;49.372;8.166;2023-04-24T01:05:11;0.93;;;0.60;;
14100;SDS011;7127;49.372;8.166;2023-04-24T01:07:38;0.97;;;0.70;;
14100;SDS011;7127;49.372;8.166;2023-04-24T01:10:10;0.50;;;0.40;;
14100;SDS011;7127;49.372;8.166;2023-04-24T01:12:38;0.47;;;0.30;;
14100;SDS011;7127;49.372;8.166;2023-04-24T01:15:06;0.50;;;0.40;;
14100;SDS011;7127;49.372;8.166;2023-04-24T01:17:34;0.93;;;0.57;;
14100;SDS011;7127;49.372;8.166;2023-04-24T01:20:00;0.87;;;0.43;;
14100;SDS011;7127;49.372;8.166;2023-04-24T01:22:32;0.80;;;0.43;;
14100;SDS011;7127;49.372;8.166;2023-04-24T01:24:59;0.40;;;0.40;;
14100;SDS011;7127;49.372;8.166;2023-04-24T01:27:26;0.67;;;0.63;;
14100;SDS011;7127;49.372;8.166;2023-04-24T01:29:53;0.57;;;0.40;;
14100;SDS011;7127;49.372;8.166;2023-04-24T01:32:20;0.40;;;0.40;;
14100;SDS011;7127;49.372;8.166;2023-04-24T01:34:47;0.47;;;0.40;;
14100;SDS011;7127;49.372;8.166;2023-04-24T01:37:15;0.50;;;0.50;;
14100;SDS011;7127;49.372;8.166;2023-04-24T01:39:43;1.87;;;0.60;;
14100;SDS011;7127;49.372;8.166;2023-04-24T01:42:10;0.87;;;0.67;;
14100;SDS011;7127;49.372;8.166;2023-04-24T01:44:39;0.57;;;0.20;;
14100;SDS011;7127;49.372;8.166;2023-04-24T01:47:06;0.50;;;0.47;;
14100;SDS011;7127;49.372;8.166;2023-04-24T01:49:33;0.60;;;0.60;;
14100;SDS011;7127;49.372;8.166;2023-04-24T01:52:00;0.50;;;0.40;;
14100;SDS011;7127;49.372;8.166;2023-04-24T01:54:27;0.77;;;0.40;;
14100;SDS011;7127;49.372;8.166;2023-04-24T01:56:55;0.50;;;0.50;;
14100;SDS011;7127;49.372;8.166;2023-04-24T01:59:22;0.60;;;0.50;;
14100;SDS011;7127;49.372;8.166;2023-04-24T02:01:51;0.70;;;0.60;;
14100;SDS011;7127;49.372;8.166;2023-04-24T02:04:18;0.90;;;0.50;;
14100;SDS011;7127;49.372;8.166;2023-04-24T02:06:45;0.50;;;0.50;;
14100;SDS011;7127;49.372;8.166;2023-04-24T02:09:12;1.53;;;0.73;;
14100;SDS011;7127;49.372;8.166;2023-04-24T02:11:39;1.63;;;0.60;;
14100;SDS011;7127;49.372;8.166;2023-04-24T02:14:07;0.87;;;0.67;;
14100;SDS011;7127;49.372;8.166;2023-04-24T02:16:34;0.70;;;0.70;;
14100;SDS011;7127;49.372;8.166;2023-04-24T02:19:00;0.70;;;0.50;;
14100;SDS011;7127;49.372;8.166;2023-04-24T02:21:27;0.60;;;0.60;;
14100;SDS011;7127;49.372;8.166;2023-04-24T02:23:55;0.73;;;0.70;;
14100;SDS011;7127;49.372;8.166;2023-04-24T02:26:22;1.17;;;0.83;;
14100;SDS011;7127;49.372;8.166;2023-04-24T02:28:50;3.63;;;1.00;;
14100;SDS011;7127;49.372;8.166;2023-04-24T02:31:18;1.03;;;0.83;;
14100;SDS011;7127;49.372;8.166;2023-04-24T02:33:45;0.60;;;0.60;;
14100;SDS011;7127;49.372;8.166;2023-04-24T02:36:12;0.67;;;0.60;;
14100;SDS011;7127;49.372;8.166;2023-04-24T02:38:39;0.77;;;0.40;;
14100;SDS011;7127;49.372;8.166;2023-04-24T02:41:06;0.43;;;0.40;;
14100;SDS011;7127;49.372;8.166;2023-04-24T02:43:33;0.50;;;0.50;;
14100;SDS011;7127;49.372;8.166;2023-04-24T02:45:59;1.30;;;0.40;;
14100;SDS011;7127;49.372;8.166;2023-04-24T02:48:28;0.80;;;0.80;;
14100;SDS011;7127;49.372;8.166;2023-04-24T02:50:55;0.60;;;0.50;;
14100;SDS011;7127;49.372;8.166;2023-04-24T02:53:22;0.73;;;0.70;;
14100;SDS011;7127;49.372;8.166;2023-04-24T02:55:49;0.87;;;0.70;;
14100;SDS011;7127;49.372;8.166;2023-04-24T02:58:16;0.83;;;0.50;;
14100;SDS011;7127;49.372;8.166;2023-04-24T03:00:44;0.70;;;0.70;;
14100;SDS011;7127;49.372;8.166;2023-04-24T03:03:11;0.50;;;0.50;;
14100;SDS011;7127;49.372;8.166;2023-04-24T03:05:39;0.50;;;0.50;;
14100;SDS011;7127;49.372;8.166;2023-04-24T03:08:06;0.50;;;0.50;;
14100;SDS011;7127;49.372;8.166;2023-04-24T03:10:33;0.67;;;0.67;;
14100;SDS011;7127;49.372;8.166;2023-04-24T03:13:00;1.60;;;0.83;;
14100;SDS011;7127;49.372;8.166;2023-04-24T03:15:27;0.80;;;0.80;;
14100;SDS011;7127;49.372;8.166;2023-04-24T03:17:54;0.53;;;0.53;;
14100;SDS011;7127;49.372;8.166;2023-04-24T03:20:21;0.50;;;0.50;;
14100;SDS011;7127;49.372;8.166;2023-04-24T03:22:49;0.37;;;0.30;;
14100;SDS011;7127;49.372;8.166;2023-04-24T03:25:16;1.10;;;0.50;;
14100;SDS011;7127;49.372;8.166;2023-04-24T03:27:43;0.57;;;0.57;;
14100;SDS011;7127;49.372;8.166;2023-04-24T03:30:10;0.50;;;0.43;;
14100;SDS011;7127;49.372;8.166;2023-04-24T03:32:37;0.93;;;0.93;;
14100;SDS011;7127;49.372;8.166;2023-04-24T03:35:05;0.60;;;0.60;;
14100;SDS011;7127;49.372;8.166;2023-04-24T03:37:33;0.97;;;0.80;;
14100;SDS011;7127;49.372;8.166;2023-04-24T03:40:02;0.60;;;0.60;;
14100;SDS011;7127;49.372;8.166;2023-04-24T03:42:29;0.87;;;0.80;;
14100;SDS011;7127;49.372;8.166;2023-04-24T03:44:56;1.33;;;0.93;;
14100;SDS011;7127;49.372;8.166;2023-04-24T03:47:23;0.70;;;0.70;;
14100;SDS011;7127;49.372;8.166;2023-04-24T03:49:49;0.80;;;0.80;;
14100;SDS011;7127;49.372;8.166;2023-04-24T03:52:17;0.80;;;0.80;;
14100;SDS011;7127;49.372;8.166;2023-04-24T03:54:44;1.07;;;0.97;;
14100;SDS011;7127;49.372;8.166;2023-04-24T03:57:12;1.53;;;1.07;;
14100;SDS011;7127;49.372;8.166;2023-04-24T03:59:39;1.00;;;0.90;;
14100;SDS011;7127;49.372;8.166;2023-04-24T04:02:05;1.00;;;0.97;;
14100;SDS011;7127;49.372;8.166;2023-04-24T04:04:32;0.80;;;0.80;;
14100;SDS011;7127;49.372;8.166;2023-04-24T04:06:59;1.30;;;0.90;;
14100;SDS011;7127;49.372;8.166;2023-04-24T04:09:27;1.10;;;1.00;;
14100;SDS011;7127;49.372;8.166;2023-04-24T04:11:54;1.23;;;0.90;;
14100;SDS011;7127;49.372;8.166;2023-04-24T04:14:23;1.90;;;1.20;;
14100;SDS011;7127;49.372;8.166;2023-04-24T04:16:50;1.00;;;0.90;;
14100;SDS011;7127;49.372;8.166;2023-04-24T04:19:17;1.70;;;0.90;;
14100;SDS011;7127;49.372;8.166;2023-04-24T04:21:43;0.93;;;0.93;;
14100;SDS011;7127;49.372;8.166;2023-04-24T04:24:15;1.07;;;0.93;;
14100;SDS011;7127;49.372;8.166;2023-04-24T04:26:42;1.90;;;1.07;;
14100;SDS011;7127;49.372;8.166;2023-04-24T04:29:11;1.27;;;1.17;;
14100;SDS011;7127;49.372;8.166;2023-04-24T04:31:39;0.87;;;0.87;;
14100;SDS011;7127;49.372;8.166;2023-04-24T04:34:06;1.30;;;1.20;;
14100;SDS011;7127;49.372;8.166;2023-04-24T04:36:34;1.37;;;1.10;;
14100;SDS011;7127;49.372;8.166;2023-04-24T04:39:01;1.30;;;1.20;;
14100;SDS011;7127;49.372;8.166;2023-04-24T04:41:29;1.23;;;1.13;;
14100;SDS011;7127;49.372;8.166;2023-04-24T04:43:55;1.20;;;1.10;;
14100;SDS011;7127;49.372;8.166;2023-04-24T04:46:24;1.57;;;1.20;;
14100;SDS011;7127;49.372;8.166;2023-04-24T04:48:53;2.80;;;1.30;;
14100;SDS011;7127;49.372;8.166;2023-04-24T04:51:19;1.50;;;1.30;;
14100;SDS011;7127;49.372;8.166;2023-04-24T04:53:46;1.20;;;1.10;;
14100;SDS011;7127;49.372;8.166;2023-04-24T04:56:13;1.30;;;1.20;;
14100;SDS011;7127;49.372;8.166;2023-04-24T04:58:40;0.97;;;0.90;;
14100;SDS011;7127;49.372;8.166;2023-04-24T05:01:07;1.30;;;1.20;;
14100;SDS011;7127;49.372;8.166;2023-04-24T05:03:33;1.33;;;1.17;;
14100;SDS011;7127;49.372;8.166;2023-04-24T05:06:03;1.23;;;1.13;;
14100;SDS011;7127;49.372;8.166;2023-04-24T05:08:30;1.40;;;1.30;;
14100;SDS011;7127;49.372;8.166;2023-04-24T05:10:57;1.50;;;1.40;;
14100;SDS011;7127;49.372;8.166;2023-04-24T05:13:23;1.20;;;1.10;;
14100;SDS011;7127;49.372;8.166;2023-04-24T05:15:50;1.13;;;1.03;;
14100;SDS011;7127;49.372;8.166;2023-04-24T05:18:17;1.10;;;1.00;;
14100;SDS011;7127;49.372;8.166;2023-04-24T05:20:44;2.37;;;1.30;;
14100;SDS011;7127;49.372;8.166;2023-04-24T05:23:12;1.40;;;1.27;;
14100;SDS011;7127;49.372;8.166;2023-04-24T05:25:39;1.77;;;1.10;;
14100;SDS011;7127;49.372;8.166;2023-04-24T05:28:06;1.00;;;1.00;;
14100;SDS011;7127;49.372;8.166;2023-04-24T05:30:33;1.23;;;1.10;;
14100;SDS011;7127;49.372;8.166;2023-04-24T05:33:00;1.33;;;1.23;;
14100;SDS011;7127;49.372;8.166;2023-04-24T05:35:27;2.27;;;1.20;;
14100;SDS011;7127;49.372;8.166;2023-04-24T05:37:55;1.23;;;1.10;;
14100;SDS011;7127;49.372;8.166;2023-04-24T05:40:23;1.87;;;1.17;;
14100;SDS011;7127;49.372;8.166;2023-04-24T05:42:50;1.20;;;1.10;;
14100;SDS011;7127;49.372;8.166;2023-04-24T05:45:17;2.23;;;1.00;;
14100;SDS011;7127;49.372;8.166;2023-04-24T05:47:44;1.07;;;1.07;;
14100;SDS011;7127;49.372;8.166;2023-04-24T05:50:12;1.20;;;1.10;;
14100;SDS011;7127;49.372;8.166;2023-04-24T05:52:38;1.80;;;1.20;;
14100;SDS011;7127;49.372;8.166;2023-04-24T05:55:05;2.13;;;1.00;;
14100;SDS011;7127;49.372;8.166;2023-04-24T05:57:35;1.20;;;1.10;;
14100;SDS011;7127;49.372;8.166;2023-04-24T06:00:02;1.47;;;1.00;;
14100;SDS011;7127;49.372;8.166;2023-04-24T06:02:30;1.10;;;1.00;;
14100;SDS011;7127;49.372;8.166;2023-04-24T06:04:57;0.97;;;0.97;;
14100;SDS011;7127;49.372;8.166;2023-04-24T06:07:25;1.00;;;0.90;;
14100;SDS011;7127;49.372;8.166;2023-04-24T06:09:52;0.90;;;0.90;;
14100;SDS011;7127;49.372;8.166;2023-04-24T06:12:19;0.60;;;0.60;;
14100;SDS011;7127;49.372;8.166;2023-04-24T06:14:48;0.60;;;0.60;;
14100;SDS011;7127;49.372;8.166;2023-04-24T06:17:15;0.60;;;0.60;;
14100;SDS011;7127;49.372;8.166;2023-04-24T06:19:42;0.50;;;0.50;;
14100;SDS011;7127;49.372;8.166;2023-04-24T06:22:09;0.60;;;0.60;;
14100;SDS011;7127;49.372;8.166;2023-04-24T06:24:42;0.47;;;0.47;;
14100;SDS011;7127;49.372;8.166;2023-04-24T06:27:08;0.40;;;0.40;;
14100;SDS011;7127;49.372;8.166;2023-04-24T06:29:36;1.53;;;0.80;;
14100;SDS011;7127;49.372;8.166;2023-04-24T06:32:04;0.87;;;0.67;;
14100;SDS011;7127;49.372;8.166;2023-04-24T06:34:31;0.43;;;0.43;;
14100;SDS011;7127;49.372;8.166;2023-04-24T06:36:59;0.50;;;0.50;;
14100;SDS011;7127;49.372;8.166;2023-04-24T06:39:26;0.43;;;0.43;;
14100;SDS011;7127;49.372;8.166;2023-04-24T06:41:52;0.70;;;0.50;;
14100;SDS011;7127;49.372;8.166;2023-04-24T06:44:20;0.70;;;0.70;;
14100;SDS011;7127;49.372;8.166;2023-04-24T06:46:46;0.77;;;0.53;;
14100;SDS011;7127;49.372;8.166;2023-04-24T06:49:15;0.40;;;0.40;;
14100;SDS011;7127;49.372;8.166;2023-04-24T06:51:42;0.90;;;0.67;;
14100;SDS011;7127;49.372;8.166;2023-04-24T06:54:09;0.67;;;0.67;;
14100;SDS011;7127;49.372;8.166;2023-04-24T06:56:36;0.60;;;0.60;;
14100;SDS011;7127;49.372;8.166;2023-04-24T06:59:03;0.80;;;0.70;;
14100;SDS011;7127;49.372;8.166;2023-04-24T07:01:30;0.80;;;0.80;;
14100;SDS011;7127;49.372;8.166;2023-04-24T07:03:56;0.60;;;0.60;;
14100;SDS011;7127;49.372;8.166;2023-04-24T07:06:25;1.50;;;0.80;;
14100;SDS011;7127;49.372;8.166;2023-04-24T07:08:52;0.97;;;0.90;;
14100;SDS011;7127;49.372;8.166;2023-04-24T07:11:20;1.17;;;0.90;;
14100;SDS011;7127;49.372;8.166;2023-04-24T07:13:47;1.43;;;1.00;;
14100;SDS011;7127;49.372;8.166;2023-04-24T07:16:13;1.73;;;0.87;;
14100;SDS011;7127;49.372;8.166;2023-04-24T07:18:40;0.87;;;0.87;;
14100;SDS011;7127;49.372;8.166;2023-04-24T07:21:07;1.00;;;0.90;;
14100;SDS011;7127;49.372;8.166;2023-04-24T07:23:36;1.30;;;0.90;;
14100;SDS011;7127;49.372;8.166;2023-04-24T07:26:02;1.37;;;1.00;;
14100;SDS011;7127;49.372;8.166;2023-04-24T07:28:30;1.20;;;1.10;;
14100;SDS011;7127;49.372;8.166;2023-04-24T07:30:57;0.93;;;0.90;;
14100;SDS011;7127;49.372;8.166;2023-04-24T07:33:24;0.73;;;0.73;;
14100;SDS011;7127;49.372;8.166;2023-04-24T07:35:51;0.87;;;0.87;;
14100;SDS011;7127;49.372;8.166;2023-04-24T07:38:18;0.73;;;0.73;;
14100;SDS011;7127;49.372;8.166;2023-04-24T07:40:48;0.80;;;0.80;;
14100;SDS011;7127;49.372;8.166;2023-04-24T07:43:15;0.90;;;0.87;;
14100;SDS011;7127;49.372;8.166;2023-04-24T07:45:42;1.00;;;0.87;;
14100;SDS011;7127;49.372;8.166;2023-04-24T07:48:09;0.60;;;0.60;;
14100;SDS011;7127;49.372;8.166;2023-04-24T07:50:35;0.80;;;0.80;;
14100;SDS011;7127;49.372;8.166;2023-04-24T07:53:02;0.90;;;0.90;;
14100;SDS011;7127;49.372;8.166;2023-04-24T07:55:29;0.80;;;0.80;;
14100;SDS011;7127;49.372;8.166;2023-04-24T07:57:57;0.90;;;0.80;;
14100;SDS011;7127;49.372;8.166;2023-04-24T08:00:24;1.10;;;1.00;;
14100;SDS011;7127;49.372;8.166;2023-04-24T08:02:51;3.23;;;1.00;;
14100;SDS011;7127;49.372;8.166;2023-04-24T08:05:18;1.43;;;1.33;;
14100;SDS011;7127;49.372;8.166;2023-04-24T08:07:45;2.37;;;1.50;;
14100;SDS011;7127;49.372;8.166;2023-04-24T08:10:13;1.20;;;0.93;;
14100;SDS011;7127;49.372;8.166;2023-04-24T08:12:41;0.83;;;0.83;;
14100;SDS011;7127;49.372;8.166;2023-04-24T08:15:09;0.87;;;0.87;;
14100;SDS011;7127;49.372;8.166;2023-04-24T08:17:36;1.00;;;0.90;;
14100;SDS011;7127;49.372;8.166;2023-04-24T08:20:04;1.70;;;1.00;;
14100;SDS011;7127;49.372;8.166;2023-04-24T08:22:35;1.23;;;0.90;;
14100;SDS011;7127;49.372;8.166;2023-04-24T08:25:02;1.00;;;1.00;;
14100;SDS011;7127;49.372;8.166;2023-04-24T08:27:29;0.87;;;0.87;;
14100;SDS011;7127;49.372;8.166;2023-04-24T08:29:56;1.57;;;1.20;;
14100;SDS011;7127;49.372;8.166;2023-04-24T08:32:25;1.40;;;1.00;;
14100;SDS011;7127;49.372;8.166;2023-04-24T08:34:53;1.30;;;1.00;;
14100;SDS011;7127;49.372;8.166;2023-04-24T08:37:21;0.77;;;0.77;;
14100;SDS011;7127;49.372;8.166;2023-04-24T08:39:48;1.10;;;1.00;;
14100;SDS011;7127;49.372;8.166;2023-04-24T08:42:15;1.03;;;0.90;;
14100;SDS011;7127;49.372;8.166;2023-04-24T08:44:44;1.70;;;1.33;;
14100;SDS011;7127;49.372;8.166;2023-04-24T08:47:11;1.30;;;1.20;;
14100;SDS011;7127;49.372;8.166;2023-04-24T08:49:39;2.20;;;1.50;;
14100;SDS011;7127;49.372;8.166;2023-04-24T08:52:06;1.40;;;1.30;;
14100;SDS011;7127;49.372;8.166;2023-04-24T08:54:34;0.90;;;0.90;;
14100;SDS011;7127;49.372;8.166;2023-04-24T08:57:03;1.03;;;1.03;;
14100;SDS011;7127;49.372;8.166;2023-04-24T08:59:30;0.97;;;0.93;;
14100;SDS011;7127;49.372;8.166;2023-04-24T09:01:58;1.43;;;1.20;;
14100;SDS011;7127;49.372;8.166;2023-04-24T09:04:26;0.87;;;0.87;;
14100;SDS011;7127;49.372;8.166;2023-04-24T09:06:57;0.80;;;0.80;;
14100;SDS011;7127;49.372;8.166;2023-04-24T09:09:24;1.43;;;1.10;;
14100;SDS011;7127;49.372;8.166;2023-04-24T09:11:52;2.23;;;1.20;;
14100;SDS011;7127;49.372;8.166;2023-04-24T09:14:20;2.60;;;1.30;;
14100;SDS011;7127;49.372;8.166;2023-04-24T09:16:48;1.00;;;0.90;;
14100;SDS011;7127;49.372;8.166;2023-04-24T09:19:15;1.20;;;0.97;;
14100;SDS011;7127;49.372;8.166;2023-04-24T09:21:45;1.00;;;1.00;;
14100;SDS011;7127;49.372;8.166;2023-04-24T09:24:16;1.27;;;1.10;;
14100;SDS011;7127;49.372;8.166;2023-04-24T09:26:45;1.87;;;1.47;;
14100;SDS011;7127;49.372;8.166;2023-04-24T09:29:14;1.60;;;1.47;;
14100;SDS011;7127;49.372;8.166;2023-04-24T09:31:42;2.13;;;1.40;;
14100;SDS011;7127;49.372;8.166;2023-04-24T09:34:09;1.53;;;1.27;;
14100;SDS011;7127;49.372;8.166;2023-04-24T09:36:36;1.47;;;1.30;;
14100;SDS011;7127;49.372;8.166;2023-04-24T09:39:04;1.53;;;1.23;;
14100;SDS011;7127;49.372;8.166;2023-04-24T09:41:35;1.30;;;1.20;;
14100;SDS011;7127;49.372;8.166;2023-04-24T09:44:11;1.67;;;1.00;;
14100;SDS011;7127;49.372;8.166;2023-04-24T09:46:38;1.80;;;1.00;;
14100;SDS011;7127;49.372;8.166;2023-04-24T09:49:09;1.30;;;1.20;;
14100;SDS011;7127;49.372;8.166;2023-04-24T09:51:38;1.10;;;1.00;;
14100;SDS011;7127;49.372;8.166;2023-04-24T09:54:11;1.13;;;0.90;;
14100;SDS011;7127;49.372;8.166;2023-04-24T09:56:43;0.87;;;0.87;;
14100;SDS011;7127;49.372;8.166;2023-04-24T09:59:11;1.30;;;1.20;;
14100;SDS011;7127;49.372;8.166;2023-04-24T10:01:38;1.00;;;0.83;;
14100;SDS011;7127;49.372;8.166;2023-04-24T10:04:14;2.10;;;1.13;;
14100;SDS011;7127;49.372;8.166;2023-04-24T10:06:42;1.00;;;0.90;;
14100;SDS011;7127;49.372;8.166;2023-04-24T10:09:09;0.77;;;0.77;;
14100;SDS011;7127;49.372;8.166;2023-04-24T10:11:39;0.80;;;0.80;;
14100;SDS011;7127;49.372;8.166;2023-04-24T10:14:10;0.93;;;0.93;;
14100;SDS011;7127;49.372;8.166;2023-04-24T10:16:39;1.13;;;1.10;;
14100;SDS011;7127;49.372;8.166;2023-04-24T10:19:07;0.97;;;0.90;;
14100;SDS011;7127;49.372;8.166;2023-04-24T10:21:35;1.37;;;1.27;;
14100;SDS011;7127;49.372;8.166;2023-04-24T10:24:04;1.13;;;1.03;;
14100;SDS011;7127;49.372;8.166;2023-04-24T10:26:32;1.63;;;1.07;;
14100;SDS011;7127;49.372;8.166;2023-04-24T10:29:01;1.50;;;1.20;;
14100;SDS011;7127;49.372;8.166;2023-04-24T10:31:31;1.63;;;1.20;;
14100;SDS011;7127;49.372;8.166;2023-04-24T10:33:59;0.80;;;0.80;;
14100;SDS011;7127;49.372;8.166;2023-04-24T10:36:27;1.00;;;1.00;;
14100;SDS011;7127;49.372;8.166;2023-04-24T10:38:58;1.23;;;1.13;;
14100;SDS011;7127;49.372;8.166;2023-04-24T10:41:27;1.13;;;1.03;;
14100;SDS011;7127;49.372;8.166;2023-04-24T10:44:08;1.03;;;1.00;;
14100;SDS011;7127;49.372;8.166;2023-04-24T10:46:36;1.30;;;1.20;;
14100;SDS011;7127;49.372;8.166;2023-04-24T10:49:04;1.17;;;1.00;;
14100;SDS011;7127;49.372;8.166;2023-04-24T10:51:44;1.43;;;1.33;;
14100;SDS011;7127;49.372;8.166;2023-04-24T10:54:22;1.37;;;1.20;;
14100;SDS011;7127;49.372;8.166;2023-04-24T10:56:49;1.77;;;1.33;;
14100;SDS011;7127;49.372;8.166;2023-04-24T10:59:24;1.70;;;1.33;;
14100;SDS011;7127;49.372;8.166;2023-04-24T11:01:53;1.13;;;1.03;;
14100;SDS011;7127;49.372;8.166;2023-04-24T11:04:31;1.53;;;1.43;;
14100;SDS011;7127;49.372;8.166;2023-04-24T11:07:00;2.27;;;1.33;;
14100;SDS011;7127;49.372;8.166;2023-04-24T11:09:29;1.10;;;1.00;;
14100;SDS011;7127;49.372;8.166;2023-04-24T11:12:04;1.37;;;1.20;;
14100;SDS011;7127;49.372;8.166;2023-04-24T11:17:36;1.40;;;1.30;;
14100;SDS011;7127;49.372;8.166;2023-04-24T11:20:06;2.23;;;1.47;;
14100;SDS011;7127;49.372;8.166;2023-04-24T11:22:35;1.63;;;1.30;;
14100;SDS011;7127;49.372;8.166;2023-04-24T11:25:04;2.03;;;1.50;;
14100;SDS011;7127;49.372;8.166;2023-04-24T11:27:38;1.20;;;1.10;;
14100;SDS011;7127;49.372;8.166;2023-04-24T11:30:09;1.30;;;1.20;;
14100;SDS011;7127;49.372;8.166;2023-04-24T11:32:37;2.83;;;1.83;;
14100;SDS011;7127;49.372;8.166;2023-04-24T11:35:05;1.87;;;1.40;;
14100;SDS011;7127;49.372;8.166;2023-04-24T11:37:35;2.93;;;1.30;;
14100;SDS011;7127;49.372;8.166;2023-04-24T11:40:03;1.97;;;1.70;;
14100;SDS011;7127;49.372;8.166;2023-04-24T11:42:35;2.53;;;1.40;;
14100;SDS011;7127;49.372;8.166;2023-04-24T11:45:08;1.60;;;1.50;;
14100;SDS011;7127;49.372;8.166;2023-04-24T11:47:36;1.93;;;1.50;;
14100;SDS011;7127;49.372;8.166;2023-04-24T11:50:04;4.03;;;1.80;;
14100;SDS011;7127;49.372;8.166;2023-04-24T11:52:33;1.57;;;1.10;;
14100;SDS011;7127;49.372;8.166;2023-04-24T11:55:02;1.37;;;1.27;;
14100;SDS011;7127;49.372;8.166;2023-04-24T11:57:30;1.33;;;1.13;;
14100;SDS011;7127;49.372;8.166;2023-04-24T11:59:59;1.93;;;1.60;;
14100;SDS011;7127;49.372;8.166;2023-04-24T12:02:27;1.50;;;1.33;;
14100;SDS011;7127;49.372;8.166;2023-04-24T12:04:55;1.30;;;1.20;;
14100;SDS011;7127;49.372;8.166;2023-04-24T12:07:22;1.83;;;1.30;;
14100;SDS011;7127;49.372;8.166;2023-04-24T12:09:55;1.40;;;1.30;;
14100;SDS011;7127;49.372;8.166;2023-04-24T12:12:24;1.83;;;1.50;;
14100;SDS011;7127;49.372;8.166;2023-04-24T12:14:53;1.20;;;1.10;;
14100;SDS011;7127;49.372;8.166;2023-04-24T12:17:25;2.03;;;1.30;;
14100;SDS011;7127;49.372;8.166;2023-04-24T12:19:58;2.07;;;1.47;;
14100;SDS011;7127;49.372;8.166;2023-04-24T12:22:27;3.73;;;1.60;;
14100;SDS011;7127;49.372;8.166;2023-04-24T12:24:56;1.30;;;1.20;;
14100;SDS011;7127;49.372;8.166;2023-04-24T12:27:23;1.30;;;1.20;;
14100;SDS011;7127;49.372;8.166;2023-04-24T12:29:51;2.47;;;1.43;;
14100;SDS011;7127;49.372;8.166;2023-04-24T12:32:19;1.90;;;1.30;;
14100;SDS011;7127;49.372;8.166;2023-04-24T12:34:47;1.80;;;1.30;;
14100;SDS011;7127;49.372;8.166;2023-04-24T12:37:16;1.77;;;1.30;;
14100;SDS011;7127;49.372;8.166;2023-04-24T12:40:00;1.73;;;1.13;;
14100;SDS011;7127;49.372;8.166;2023-04-24T12:42:29;1.53;;;1.33;;
14100;SDS011;7127;49.372;8.166;2023-04-24T12:44:57;1.77;;;1.30;;
14100;SDS011;7127;49.372;8.166;2023-04-24T12:47:26;1.30;;;1.20;;
14100;SDS011;7127;49.372;8.166;2023-04-24T12:49:55;4.10;;;1.40;;
14100;SDS011;7127;49.372;8.166;2023-04-24T12:52:22;1.93;;;1.20;;
14100;SDS011;7127;49.372;8.166;2023-04-24T12:54:52;1.87;;;1.40;;
14100;SDS011;7127;49.372;8.166;2023-04-24T12:57:22;1.90;;;1.00;;
14100;SDS011;7127;49.372;8.166;2023-04-24T12:59:49;4.80;;;1.70;;
14100;SDS011;7127;49.372;8.166;2023-04-24T13:02:16;1.40;;;1.20;;
14100;SDS011;7127;49.372;8.166;2023-04-24T13:04:43;3.60;;;1.40;;
14100;SDS011;7127;49.372;8.166;2023-04-24T13:07:13;2.77;;;1.40;;
14100;SDS011;7127;49.372;8.166;2023-04-24T13:09:40;3.77;;;1.63;;
14100;SDS011;7127;49.372;8.166;2023-04-24T13:12:07;1.83;;;1.43;;
14100;SDS011;7127;49.372;8.166;2023-04-24T13:14:34;2.03;;;1.40;;
14100;SDS011;7127;49.372;8.166;2023-04-24T13:17:02;1.40;;;1.30;;
14100;SDS011;7127;49.372;8.166;2023-04-24T13:19:29;1.30;;;1.20;;
14100;SDS011;7127;49.372;8.166;2023-04-24T13:22:02;1.77;;;1.40;;
14100;SDS011;7127;49.372;8.166;2023-04-24T13:24:31;2.70;;;1.37;;
14100;SDS011;7127;49.372;8.166;2023-04-24T13:26:59;4.37;;;1.70;;
14100;SDS011;7127;49.372;8.166;2023-04-24T13:29:27;1.70;;;1.20;;
14100;SDS011;7127;49.372;8.166;2023-04-24T13:31:54;1.30;;;1.20;;
14100;SDS011;7127;49.372;8.166;2023-04-24T13:34:22;2.80;;;1.40;;
14100;SDS011;7127;49.372;8.166;2023-04-24T13:36:49;2.37;;;1.37;;
14100;SDS011;7127;49.372;8.166;2023-04-24T13:39:16;5.70;;;1.80;;
14100;SDS011;7127;49.372;8.166;2023-04-24T13:41:45;4.07;;;1.50;;
14100;SDS011;7127;49.372;8.166;2023-04-24T13:44:13;1.40;;;0.90;;
14100;SDS011;7127;49.372;8.166;2023-04-24T13:46:40;1.40;;;1.10;;
14100;SDS011;7127;49.372;8.166;2023-04-24T13:49:09;3.83;;;1.10;;
14100;SDS011;7127;49.372;8.166;2023-04-24T13:51:36;1.27;;;1.17;;
14100;SDS011;7127;49.372;8.166;2023-04-24T13:54:03;1.23;;;1.13;;
14100;SDS011;7127;49.372;8.166;2023-04-24T13:56:30;1.10;;;1.00;;
14100;SDS011;7127;49.372;8.166;2023-04-24T13:58:58;1.27;;;1.00;;
14100;SDS011;7127;49.372;8.166;2023-04-24T14:01:26;1.20;;;1.10;;
14100;SDS011;7127;49.372;8.166;2023-04-24T14:03:53;1.20;;;1.10;;
14100;SDS011;7127;49.372;8.166;2023-04-24T14:06:21;1.50;;;1.10;;
14100;SDS011;7127;49.372;8.166;2023-04-24T14:08:48;1.93;;;1.30;;
14100;SDS011;7127;49.372;8.166;2023-04-24T14:11:16;1.27;;;1.17;;
14100;SDS011;7127;49.372;8.166;2023-04-24T14:13:44;1.77;;;1.20;;
14100;SDS011;7127;49.372;8.166;2023-04-24T14:16:12;1.30;;;1.20;;
14100;SDS011;7127;49.372;8.166;2023-04-24T14:18:40;1.50;;;0.97;;
14100;SDS011;7127;49.372;8.166;2023-04-24T14:21:07;1.10;;;1.00;;
14100;SDS011;7127;49.372;8.166;2023-04-24T14:23:34;1.40;;;0.90;;
14100;SDS011;7127;49.372;8.166;2023-04-24T14:26:01;1.57;;;1.33;;
14100;SDS011;7127;49.372;8.166;2023-04-24T14:28:28;2.20;;;1.30;;
14100;SDS011;7127;49.372;8.166;2023-04-24T14:30:55;1.80;;;1.47;;
14100;SDS011;7127;49.372;8.166;2023-04-24T14:33:23;1.17;;;1.07;;
14100;SDS011;7127;49.372;8.166;2023-04-24T14:35:50;1.57;;;1.10;;
14100;SDS011;7127;49.372;8.166;2023-04-24T14:38:18;2.40;;;1.10;;
14100;SDS011;7127;49.372;8.166;2023-04-24T14:40:45;1.03;;;0.93;;
14100;SDS011;7127;49.372;8.166;2023-04-24T14:43:12;1.23;;;1.00;;
14100;SDS011;7127;49.372;8.166;2023-04-24T14:45:38;1.17;;;0.93;;
14100;SDS011;7127;49.372;8.166;2023-04-24T14:48:06;1.60;;;1.20;;
14100;SDS011;7127;49.372;8.166;2023-04-24T14:50:35;1.03;;;0.90;;
14100;SDS011;7127;49.372;8.166;2023-04-24T14:53:02;1.20;;;1.10;;
14100;SDS011;7127;49.372;8.166;2023-04-24T14:55:29;0.87;;;0.83;;
14100;SDS011;7127;49.372;8.166;2023-04-24T14:57:56;1.00;;;1.00;;
14100;SDS011;7127;49.372;8.166;2023-04-24T15:00:23;1.17;;;1.07;;
14100;SDS011;7127;49.372;8.166;2023-04-24T15:02:50;1.23;;;1.10;;
14100;SDS011;7127;49.372;8.166;2023-04-24T15:05:17;1.67;;;1.40;;
14100;SDS011;7127;49.372;8.166;2023-04-24T15:07:45;1.40;;;1.30;;